Charlotte Court House, Virginia
Current Conditions -  °F | °C
As of 5:15 PM on Thursday 18 Dec 2014 (Local Time) from KCXE Reporting Station
Overcast Overcast  
Wind Chill: 42°   Ceiling: 9000
Heat Index: 42°   Visibility: 10mi
Dew Point: 30°   Wind: 0mph
Humidity: 63%   Direction: NA
Pressure: 30.08"   Gusts: NA
Location:  37.06°N, 78.64°W
Report Text: KCXE 182215Z AUTO 00000KT 10SM OVC090 06/M01 A3008 RMK AO1 T00561010
Loading
Personal Weather Stations






























Interactive Weather Map New forecast layout! Learn more

10-Day Weather Forecast

Advertisements
Track Severe Weather on mobile